Time;durP1;ratioP1;P1;durP2;ratioP2;P2;SDS_P1;SDS_P2;PMS_P1;PMS_P2;Temp;Humidity;BMP_temperature;BMP_pressure;BME280_temperature;BME280_humidity;BME280_pressure;Samples;Min_cycle;Max_cycle;Signal;HPM_P1;HPM_P2
2023/03/14 00:00:14;;;;;;;28.50;5.90;;;;;;;5.68;43.84;101173.08;107545;1254;109191;-66
2023/03/14 00:03:02;;;;;;;15.90;5.90;;;;;;;5.58;44.68;101177.05;107532;1254;109569;-65
2023/03/14 00:05:30;;;;;;;15.10;4.70;;;;;;;5.46;44.54;101173.52;107502;1254;99265;-66
2023/03/14 00:07:59;;;;;;;12.30;5.30;;;;;;;5.36;44.34;101171.29;107517;1254;99852;-65
2023/03/14 00:10:28;;;;;;;14.40;6.00;;;;;;;5.27;44.78;101169.33;107548;1254;113114;-64
2023/03/14 00:12:56;;;;;;;13.20;5.80;;;;;;;5.22;45.06;101162.52;107546;1257;109867;-64
2023/03/14 00:15:24;;;;;;;13.60;6.30;;;;;;;5.16;45.11;101156.98;107504;1254;109299;-65
2023/03/14 00:17:53;;;;;;;16.00;5.70;;;;;;;5.11;45.13;101151.41;107525;1254;99202;-65
2023/03/14 00:20:21;;;;;;;11.00;5.90;;;;;;;5.05;45.35;101144.80;107532;1254;99049;-65
2023/03/14 00:22:49;;;;;;;20.30;5.40;;;;;;;5.01;45.38;101143.29;107551;1253;114218;-66
2023/03/14 00:25:18;;;;;;;16.70;6.60;;;;;;;4.96;45.17;101135.20;107546;1254;109130;-66
2023/03/14 00:27:46;;;;;;;15.90;5.60;;;;;;;4.93;45.42;101132.74;107488;1254;109199;-65
2023/03/14 00:30:15;;;;;;;22.70;7.80;;;;;;;4.89;45.81;101130.11;107495;1254;99285;-65
2023/03/14 00:32:43;;;;;;;13.10;6.00;;;;;;;4.83;45.71;101126.20;107559;1254;99714;-64
2023/03/14 00:35:12;;;;;;;8.70;5.50;;;;;;;4.78;45.91;101125.95;107563;1254;113518;-65
2023/03/14 00:37:40;;;;;;;16.20;5.80;;;;;;;4.73;46.34;101124.48;107540;1257;110020;-66
2023/03/14 00:40:10;;;;;;;19.40;6.50;;;;;;;4.66;46.45;101124.14;107545;1254;107702;-66
2023/03/14 00:42:38;;;;;;;9.70;5.80;;;;;;;4.59;46.60;101116.73;107527;1254;99256;-66
2023/03/14 00:45:08;;;;;;;14.60;6.20;;;;;;;4.52;46.84;101113.56;107546;1254;99201;-65
2023/03/14 00:47:37;;;;;;;15.90;4.80;;;;;;;4.46;46.99;101114.84;107555;1254;112500;-65
2023/03/14 00:50:06;;;;;;;13.60;4.80;;;;;;;4.47;47.43;101111.23;107577;1254;109942;-65
2023/03/14 00:52:35;;;;;;;9.90;4.90;;;;;;;4.53;47.41;101106.29;107541;1254;108663;-64
2023/03/14 00:55:04;;;;;;;10.80;4.80;;;;;;;4.62;47.63;101102.40;107524;1254;99259;-64
2023/03/14 00:57:32;;;;;;;6.50;4.50;;;;;;;4.73;47.77;101097.13;107394;1254;99121;-64
2023/03/14 01:00:00;;;;;;;6.60;4.80;;;;;;;4.83;47.52;101088.88;107331;1253;111731;-64
2023/03/14 01:02:29;;;;;;;9.20;4.20;;;;;;;4.91;47.27;101074.77;107331;1254;109232;-66
2023/03/14 01:04:57;;;;;;;11.20;4.10;;;;;;;4.97;47.43;101075.97;107428;1257;108593;-64
2023/03/14 01:07:25;;;;;;;8.40;4.00;;;;;;;5.04;47.23;101069.14;107411;1255;99291;-65
2023/03/14 01:09:54;;;;;;;8.60;4.40;;;;;;;5.11;47.10;101064.84;107419;1256;99419;-65
2023/03/14 01:12:22;;;;;;;9.60;4.20;;;;;;;5.14;46.83;101055.77;107436;1256;112731;-65
2023/03/14 01:14:51;;;;;;;7.70;4.70;;;;;;;5.17;46.93;101053.08;107405;1257;110175;-65
2023/03/14 01:17:19;;;;;;;6.70;4.00;;;;;;;5.19;46.91;101051.89;107418;1257;108899;-66
2023/03/14 01:19:47;;;;;;;10.10;4.40;;;;;;;5.21;46.61;101045.88;107530;1256;99161;-65
2023/03/14 01:22:16;;;;;;;8.70;4.30;;;;;;;5.21;46.46;101045.71;107574;1254;99723;-65
2023/03/14 01:24:44;;;;;;;9.70;4.50;;;;;;;5.20;46.58;101042.92;107546;1254;113285;-66
2023/03/14 01:27:13;;;;;;;10.10;4.80;;;;;;;5.20;46.49;101040.81;107371;1254;109480;-66
2023/03/14 01:29:41;;;;;;;8.10;4.00;;;;;;;5.20;46.50;101033.20;107583;1254;109524;-66
2023/03/14 01:32:09;;;;;;;9.60;4.40;;;;;;;5.19;46.47;101029.67;107235;1254;99112;-65
2023/03/14 01:34:38;;;;;;;6.00;3.70;;;;;;;5.20;46.67;101029.11;107551;1254;99060;-66
2023/03/14 01:37:07;;;;;;;9.80;4.00;;;;;;;5.18;46.20;101031.12;107547;1254;112607;-65
2023/03/14 01:39:38;;;;;;;9.80;5.20;;;;;;;5.13;46.30;101030.89;107558;1254;110970;-66
2023/03/14 01:42:06;;;;;;;13.00;5.00;;;;;;;5.08;46.27;101034.27;107331;1254;108072;-65
2023/03/14 01:44:55;;;;;;;6.60;4.00;;;;;;;5.05;46.08;101033.37;107553;1254;99149;-66
2023/03/14 01:47:25;;;;;;;8.40;5.00;;;;;;;5.03;46.65;101034.35;107544;1254;99684;-66
2023/03/14 01:50:04;;;;;;;11.10;4.10;;;;;;;5.02;46.95;101033.89;107599;1253;113723;-64
2023/03/14 01:52:48;;;;;;;12.80;5.10;;;;;;;5.02;47.31;101032.84;107572;1254;109144;-66
2023/03/14 01:55:21;;;;;;;8.40;4.30;;;;;;;5.00;47.50;101032.55;107318;1254;108662;-65
2023/03/14 01:58:04;;;;;;;10.20;5.30;;;;;;;4.98;47.35;101037.17;107369;1259;99194;-64
2023/03/14 02:00:32;;;;;;;9.70;4.80;;;;;;;4.96;46.89;101033.73;107363;1254;99240;-65
2023/03/14 02:03:09;;;;;;;7.80;4.80;;;;;;;4.95;46.80;101025.23;107560;1254;113063;-65
2023/03/14 02:05:40;;;;;;;5.80;4.00;;;;;;;4.95;47.00;101026.84;107568;1253;110109;-65
2023/03/14 02:08:21;;;;;;;12.70;5.00;;;;;;;4.95;47.13;101027.56;107516;1254;107167;-66
2023/03/14 02:10:56;;;;;;;7.60;5.10;;;;;;;4.95;47.50;101026.52;107489;1254;99083;-65
2023/03/14 02:13:38;;;;;;;10.00;4.90;;;;;;;4.95;47.32;101030.08;107575;1254;99058;-65
2023/03/14 02:16:26;;;;;;;7.40;4.30;;;;;;;4.95;47.60;101028.81;107517;1254;113962;-66
2023/03/14 02:19:21;;;;;;;6.00;4.00;;;;;;;4.95;47.48;101037.48;107521;1254;110575;-65
2023/03/14 02:22:10;;;;;;;8.90;4.60;;;;;;;4.96;47.81;101037.11;107488;1254;108901;-66
2023/03/14 02:25:07;;;;;;;5.90;3.90;;;;;;;4.96;47.57;101035.35;107506;1254;99313;-66
2023/03/14 02:27:36;;;;;;;;;;;;;;;4.94;47.45;101035.98;107538;1254;99166;-65
2023/03/14 02:30:08;;;;;;;8.30;4.60;;;;;;;4.94;47.61;101036.17;107553;1258;113224;-66
2023/03/14 02:32:40;;;;;;;9.80;4.50;;;;;;;4.96;47.73;101032.50;107448;1254;110241;-65
2023/03/14 02:35:13;;;;;;;8.00;5.50;;;;;;;4.97;47.58;101029.92;107496;1257;108383;-66
2023/03/14 02:38:04;;;;;;;10.30;4.40;;;;;;;4.98;47.30;101032.37;107275;1254;99211;-64
2023/03/14 02:40:36;;;;;;;6.50;4.10;;;;;;;4.98;47.03;101036.95;107522;1254;99320;-65
2023/03/14 02:43:05;;;;;;;8.00;4.70;;;;;;;4.97;47.05;101043.79;107505;1254;113198;-65
2023/03/14 02:45:42;;;;;;;9.60;4.30;;;;;;;4.98;46.93;101042.85;107521;1253;108699;-65
2023/03/14 02:48:39;;;;;;;6.70;4.50;;;;;;;4.98;46.96;101040.51;107345;1254;108776;-66
2023/03/14 02:51:10;;;;;;;8.30;4.20;;;;;;;4.97;46.80;101037.38;107541;1254;99169;-63
2023/03/14 02:53:41;;;;;;;10.30;4.60;;;;;;;4.96;46.67;101035.84;107553;1254;99145;-64
2023/03/14 02:56:12;;;;;;;7.00;3.90;;;;;;;4.94;46.76;101042.04;107368;1254;113307;-63
2023/03/14 02:58:40;;;;;;;11.40;4.30;;;;;;;4.93;46.58;101041.36;107354;1254;108911;-65
2023/03/14 03:01:27;;;;;;;8.80;4.60;;;;;;;4.92;46.44;101039.84;107581;1254;108557;-64
2023/03/14 03:03:55;;;;;;;5.70;3.90;;;;;;;4.91;46.52;101042.05;107438;1254;99930;-64
2023/03/14 03:06:24;;;;;;;7.60;4.00;;;;;;;4.90;46.42;101041.76;107323;1257;99118;-64
2023/03/14 03:08:52;;;;;;;9.10;3.80;;;;;;;4.89;46.44;101042.52;107425;1259;113501;-65
2023/03/14 03:11:21;;;;;;;7.50;5.10;;;;;;;4.88;46.48;101044.38;107425;1254;109660;-64
2023/03/14 03:13:49;;;;;;;6.80;4.30;;;;;;;4.88;46.33;101043.63;107287;1256;109249;-66
2023/03/14 03:16:17;;;;;;;8.90;4.30;;;;;;;4.86;46.22;101042.68;107357;1255;99324;-65
2023/03/14 03:18:46;;;;;;;6.40;3.90;;;;;;;4.87;46.21;101040.83;107331;1257;99208;-64
2023/03/14 03:21:14;;;;;;;10.20;4.90;;;;;;;4.87;46.15;101034.65;107438;1256;113531;-65
2023/03/14 03:23:43;;;;;;;13.20;4.90;;;;;;;4.86;46.24;101033.63;107397;1254;109893;-65
2023/03/14 03:26:12;;;;;;;12.30;4.10;;;;;;;4.86;46.12;101025.09;107399;1257;107487;-64
2023/03/14 03:28:40;;;;;;;10.00;4.50;;;;;;;4.86;45.85;101018.66;107433;1254;99170;-64
2023/03/14 03:31:10;;;;;;;6.30;3.80;;;;;;;4.88;45.90;101022.30;107455;1258;99180;-63
2023/03/14 03:33:39;;;;;;;13.10;4.60;;;;;;;4.88;45.74;101019.27;107324;1257;113965;-65
2023/03/14 03:36:08;;;;;;;12.00;4.80;;;;;;;4.89;45.79;101022.23;107434;1254;110249;-66
2023/03/14 03:38:38;;;;;;;7.40;4.90;;;;;;;4.90;45.72;101023.25;107294;1257;109112;-66
2023/03/14 03:41:08;;;;;;;5.70;4.00;;;;;;;4.91;45.62;101029.24;107433;1255;99078;-64
2023/03/14 03:43:36;;;;;;;8.00;4.90;;;;;;;4.93;45.34;101036.61;107464;1257;99961;-65
2023/03/14 03:46:06;;;;;;;7.00;4.20;;;;;;;4.93;45.54;101034.12;107452;1254;113188;-64
2023/03/14 03:48:36;;;;;;;10.80;4.80;;;;;;;4.93;45.73;101029.13;107460;1257;109031;-65
2023/03/14 03:51:06;;;;;;;7.00;4.50;;;;;;;4.94;45.61;101024.98;107430;1258;107258;-65
2023/03/14 03:53:35;;;;;;;6.30;4.10;;;;;;;4.92;45.55;101021.14;107359;1257;99173;-65
2023/03/14 03:56:07;;;;;;;6.30;4.50;;;;;;;4.91;45.44;101019.64;107456;1254;99225;-65
2023/03/14 03:58:38;;;;;;;10.00;4.40;;;;;;;4.89;45.64;101019.04;107386;1257;113550;-65
2023/03/14 04:01:08;;;;;;;10.70;4.40;;;;;;;4.87;45.83;101013.13;107480;1255;110181;-66
2023/03/14 04:03:40;;;;;;;6.70;4.10;;;;;;;4.86;45.77;101009.45;107465;1253;108796;-65
2023/03/14 04:06:12;;;;;;;7.50;4.40;;;;;;;4.88;45.77;101009.36;107352;1259;99190;-64
2023/03/14 04:08:43;;;;;;;14.00;4.80;;;;;;;4.89;45.82;101008.95;107576;1254;99086;-65
2023/03/14 04:11:47;;;;;;;13.40;5.10;;;;;;;4.91;45.88;101011.80;107318;1254;113566;-65
2023/03/14 04:14:22;;;;;;;11.10;4.60;;;;;;;4.93;45.53;101011.88;107544;1258;110953;-64
2023/03/14 04:16:59;;;;;;;15.20;4.70;;;;;;;4.95;45.59;101008.02;107441;1254;107713;-65
2023/03/14 04:19:28;;;;;;;10.50;5.20;;;;;;;4.99;45.66;101003.71;107317;1254;99345;-65
2023/03/14 04:21:57;;;;;;;6.90;5.00;;;;;;;5.01;45.32;101005.35;107535;1254;99045;-65
2023/03/14 04:24:30;;;;;;;7.80;5.00;;;;;;;5.04;45.46;100998.08;107547;1254;113027;-63
2023/03/14 04:26:59;;;;;;;9.70;4.70;;;;;;;5.08;45.42;100996.01;107545;1254;109834;-65
2023/03/14 04:29:28;;;;;;;8.60;4.70;;;;;;;5.13;45.22;100992.16;107547;1254;108745;-65
2023/03/14 04:31:56;;;;;;;8.60;5.60;;;;;;;5.15;45.35;100991.11;107534;1254;99406;-64
2023/03/14 04:34:25;;;;;;;9.60;4.90;;;;;;;5.18;45.14;100995.57;107562;1254;100903;-65
2023/03/14 04:36:56;;;;;;;10.60;4.70;;;;;;;5.24;44.92;101006.76;107550;1254;113025;-65
2023/03/14 04:39:38;;;;;;;9.00;4.30;;;;;;;5.30;44.88;101003.05;107527;1258;108760;-64
2023/03/14 04:42:21;;;;;;;13.60;5.50;;;;;;;5.35;44.68;101001.09;107513;1254;108473;-66
2023/03/14 04:44:49;;;;;;;6.60;3.90;;;;;;;5.39;44.67;101006.40;107536;1258;99244;-65
2023/03/14 04:47:21;;;;;;;11.80;5.30;;;;;;;5.43;44.81;101000.23;107358;1254;99325;-65
2023/03/14 04:49:50;;;;;;;5.70;3.70;;;;;;;5.48;44.34;101015.78;107579;1254;112654;-64
2023/03/14 04:52:20;;;;;;;7.50;4.50;;;;;;;5.51;44.17;101018.26;107549;1254;109918;-66
2023/03/14 04:54:48;;;;;;;7.10;4.90;;;;;;;5.56;44.27;101014.23;107325;1255;107390;-64
2023/03/14 04:57:17;;;;;;;14.40;5.50;;;;;;;5.61;43.99;101013.53;107522;1259;99181;-67
2023/03/14 04:59:46;;;;;;;8.60;4.30;;;;;;;5.65;43.80;101015.04;107534;1254;99058;-66
2023/03/14 05:02:38;;;;;;;9.40;4.70;;;;;;;5.70;43.93;101010.50;107195;1254;114500;-65
2023/03/14 05:05:34;;;;;;;6.60;4.40;;;;;;;5.75;43.81;101004.45;107515;1254;109642;-65
2023/03/14 05:08:05;;;;;;;9.60;4.80;;;;;;;5.82;44.01;101004.00;107528;1257;109284;-65
2023/03/14 05:10:57;;;;;;;13.40;5.30;;;;;;;5.87;43.95;101005.47;107228;1254;99352;-67
2023/03/14 05:13:44;;;;;;;15.80;5.80;;;;;;;5.94;43.83;101007.70;107384;1254;99058;-66
2023/03/14 05:16:42;;;;;;;15.70;4.50;;;;;;;6.01;43.91;101003.00;107345;1259;113120;-66
2023/03/14 05:19:29;;;;;;;10.20;4.60;;;;;;;6.06;43.58;101006.93;107544;1254;110116;-65
2023/03/14 05:22:17;;;;;;;8.10;4.70;;;;;;;6.12;43.60;101002.98;107517;1259;108115;-65
2023/03/14 05:25:11;;;;;;;;;;;;;;;6.15;43.62;101003.70;107517;1254;99173;-64
2023/03/14 05:28:08;;;;;;;14.00;5.40;;;;;;;6.20;43.21;101002.13;107375;1254;99070;-65
2023/03/14 05:30:48;;;;;;;12.00;4.60;;;;;;;6.22;43.27;101000.88;107522;1254;112710;-66
2023/03/14 05:33:42;;;;;;;12.70;5.30;;;;;;;6.27;43.28;101000.73;107404;1254;109002;-66
2023/03/14 05:36:29;;;;;;;21.60;5.10;;;;;;;6.31;43.36;101006.01;107487;1258;107970;-65
2023/03/14 05:39:19;;;;;;;14.60;5.20;;;;;;;6.36;43.17;100997.33;107506;1254;99216;-65
2023/03/14 05:42:07;;;;;;;14.70;5.20;;;;;;;6.37;43.22;100990.98;107511;1254;99713;-64
2023/03/14 05:45:05;;;;;;;18.40;5.60;;;;;;;6.40;42.98;100984.90;106823;1254;113132;-66
2023/03/14 05:47:52;;;;;;;10.70;4.60;;;;;;;6.45;42.41;100986.36;107513;1259;110616;-66
2023/03/14 05:50:31;;;;;;;11.10;4.30;;;;;;;6.49;42.32;100982.70;107419;1255;109262;-65
2023/03/14 05:53:38;;;;;;;13.30;4.90;;;;;;;6.52;42.34;100977.48;107257;1254;99159;-66
2023/03/14 05:56:25;;;;;;;13.20;5.30;;;;;;;6.57;42.33;100978.96;107514;1259;99739;-65
2023/03/14 05:59:08;;;;;;;13.30;5.20;;;;;;;6.62;42.25;100979.33;107341;1259;113142;-65
2023/03/14 06:01:52;;;;;;;18.80;5.00;;;;;;;6.69;41.99;100978.52;107528;1259;110071;-66
2023/03/14 06:04:24;;;;;;;18.90;5.10;;;;;;;6.72;41.85;100983.12;107552;1258;107585;-64
2023/03/14 06:06:56;;;;;;;9.40;4.70;;;;;;;6.75;41.88;100978.45;107543;1254;99183;-66
2023/03/14 06:09:25;;;;;;;13.30;4.60;;;;;;;6.79;41.66;100976.55;107526;1254;99080;-66
2023/03/14 06:11:54;;;;;;;10.80;4.60;;;;;;;6.83;41.72;100974.31;107539;1259;113523;-67
2023/03/14 06:14:23;;;;;;;17.90;6.30;;;;;;;6.89;41.63;100973.89;107549;1254;109115;-66
2023/03/14 06:16:52;;;;;;;22.90;4.70;;;;;;;6.93;41.65;100972.57;107503;1258;108044;-66
2023/03/14 06:19:22;;;;;;;16.10;4.80;;;;;;;6.99;41.70;100970.02;107345;1255;99227;-68
2023/03/14 06:21:51;;;;;;;15.10;4.90;;;;;;;7.05;41.52;100968.54;107580;1258;99073;-68
2023/03/14 06:24:19;;;;;;;15.30;5.20;;;;;;;7.12;41.56;100975.34;107397;1259;112206;-67
2023/03/14 06:26:48;;;;;;;10.60;5.30;;;;;;;7.17;41.38;100966.03;107566;1254;109702;-66
2023/03/14 06:29:16;;;;;;;15.70;4.90;;;;;;;7.24;41.16;100964.50;107528;1255;108415;-67
2023/03/14 06:31:45;;;;;;;20.30;4.80;;;;;;;7.30;41.00;100957.46;107519;1259;99204;-67
2023/03/14 06:34:15;;;;;;;9.00;4.90;;;;;;;7.35;41.03;100958.04;107536;1258;99194;-68
2023/03/14 06:36:44;;;;;;;11.20;4.80;;;;;;;7.43;40.68;100959.42;107385;1259;112238;-69
2023/03/14 06:39:13;;;;;;;17.70;5.20;;;;;;;7.49;40.59;100953.41;107529;1257;109906;-66
2023/03/14 06:41:44;;;;;;;9.90;4.90;;;;;;;7.56;40.43;100951.35;107501;1254;109494;-65
2023/03/14 06:44:13;;;;;;;16.20;4.30;;;;;;;7.62;40.64;100948.77;107346;1259;99088;-65
2023/03/14 06:46:41;;;;;;;9.60;4.30;;;;;;;7.70;40.59;100946.20;107513;1254;99269;-65
2023/03/14 06:49:10;;;;;;;15.80;4.50;;;;;;;7.77;40.31;100941.71;107361;1259;112817;-66
2023/03/14 06:51:38;;;;;;;20.60;6.00;;;;;;;7.85;39.83;100941.17;107529;1254;110081;-66
2023/03/14 06:54:07;;;;;;;10.40;4.50;;;;;;;7.92;39.84;100942.64;107552;1258;108852;-64
2023/03/14 06:56:36;;;;;;;12.10;4.60;;;;;;;8.00;39.35;100943.08;107553;1255;99245;-65
2023/03/14 06:59:06;;;;;;;16.80;5.10;;;;;;;8.06;39.68;100943.34;107534;1254;99740;-68
2023/03/14 07:01:37;;;;;;;27.80;5.20;;;;;;;8.14;39.50;100949.40;107540;1258;113270;-65
2023/03/14 07:04:09;;;;;;;13.80;5.00;;;;;;;8.19;39.54;100942.52;107551;1254;109772;-66
2023/03/14 07:06:44;;;;;;;17.40;5.50;;;;;;;8.28;39.35;100943.31;107372;1260;108427;-66
2023/03/14 07:09:12;;;;;;;12.40;4.70;;;;;;;8.38;39.08;100943.82;107502;1258;99181;-66
2023/03/14 07:11:44;;;;;;;11.40;5.20;;;;;;;8.47;39.16;100934.05;107457;1259;99718;-66
2023/03/14 07:14:13;;;;;;;16.10;4.70;;;;;;;8.55;39.06;100932.17;107412;1254;113318;-65
2023/03/14 07:16:41;;;;;;;19.90;5.60;;;;;;;8.67;38.31;100937.85;107550;1255;109838;-66
2023/03/14 07:19:09;;;;;;;10.80;5.30;;;;;;;8.78;38.50;100931.34;107519;1258;109237;-66
2023/03/14 07:21:39;;;;;;;10.50;4.50;;;;;;;8.85;38.27;100931.85;107493;1255;99247;-64
2023/03/14 07:24:10;;;;;;;9.20;4.60;;;;;;;8.95;37.74;100921.17;107524;1254;99714;-64
2023/03/14 07:26:39;;;;;;;12.40;4.50;;;;;;;9.01;37.94;100914.30;107507;1257;112621;-66
2023/03/14 07:29:08;;;;;;;12.40;4.60;;;;;;;9.09;37.64;100914.73;107454;1254;109686;-66
2023/03/14 07:31:37;;;;;;;7.50;4.60;;;;;;;9.19;37.16;100915.36;107318;1259;107162;-66
2023/03/14 07:34:06;;;;;;;18.70;6.30;;;;;;;9.24;37.08;100903.67;107488;1258;99177;-65
2023/03/14 07:36:37;;;;;;;9.30;4.70;;;;;;;9.31;37.00;100909.05;107496;1257;99115;-64
2023/03/14 07:39:06;;;;;;;19.50;4.70;;;;;;;9.37;37.21;100904.92;107397;1253;111984;-66
2023/03/14 07:41:50;;;;;;;19.90;4.80;;;;;;;9.49;37.07;100903.97;107493;1257;110631;-66
2023/03/14 07:44:37;;;;;;;12.80;3.70;;;;;;;9.62;36.19;100901.48;107453;1254;108121;-65
2023/03/14 07:47:06;;;;;;;9.30;4.00;;;;;;;9.68;35.95;100898.33;107450;1254;99163;-66
2023/03/14 07:49:34;;;;;;;9.40;4.40;;;;;;;9.74;35.78;100899.11;107508;1257;99064;-66
2023/03/14 07:52:03;;;;;;;13.80;4.40;;;;;;;9.78;35.72;100894.81;107531;1257;112861;-65
2023/03/14 07:54:31;;;;;;;11.50;3.60;;;;;;;9.87;35.39;100896.23;107535;1254;109781;-64
2023/03/14 07:57:00;;;;;;;22.30;4.40;;;;;;;9.96;35.17;100890.48;107512;1255;109246;-65
2023/03/14 07:59:29;;;;;;;13.00;4.10;;;;;;;10.07;34.82;100884.73;107517;1254;99259;-66
2023/03/14 08:01:58;;;;;;;14.10;5.60;;;;;;;10.20;34.06;100871.23;107514;1254;99756;-68
2023/03/14 08:04:27;;;;;;;15.90;3.70;;;;;;;10.29;33.77;100871.02;107527;1254;112504;-69
2023/03/14 08:06:55;;;;;;;7.50;3.40;;;;;;;10.45;32.96;100863.61;107494;1254;109126;-67
2023/03/14 08:09:24;;;;;;;10.90;3.80;;;;;;;10.56;32.41;100871.61;107419;1254;107727;-69
2023/03/14 08:11:53;;;;;;;9.50;3.10;;;;;;;10.64;31.99;100864.13;107468;1254;99266;-65
2023/03/14 08:14:23;;;;;;;9.10;2.70;;;;;;;10.75;31.87;100866.15;107413;1254;99150;-66
2023/03/14 08:16:52;;;;;;;9.30;3.00;;;;;;;10.94;30.95;100863.96;107534;1254;113496;-67
2023/03/14 08:19:20;;;;;;;9.40;3.90;;;;;;;11.10;30.51;100857.89;107487;1254;109674;-66
2023/03/14 08:21:49;;;;;;;26.40;3.90;;;;;;;11.26;29.85;100855.59;107495;1254;107805;-68
2023/03/14 08:24:17;;;;;;;11.80;3.10;;;;;;;11.40;29.17;100854.69;107375;1254;99214;-68
2023/03/14 08:26:46;;;;;;;4.90;2.90;;;;;;;11.52;29.15;100858.80;107445;1254;99778;-69
2023/03/14 08:29:14;;;;;;;16.00;2.80;;;;;;;11.67;28.40;100847.77;107430;1258;113071;-67
2023/03/14 08:31:44;;;;;;;13.20;2.90;;;;;;;11.78;27.71;100845.67;107473;1254;110014;-66
2023/03/14 08:34:12;;;;;;;14.90;2.50;;;;;;;11.86;27.91;100845.27;107348;1260;107284;-67
2023/03/14 08:36:41;;;;;;;5.50;2.70;;;;;;;11.98;27.73;100843.85;107511;1254;99227;-68
2023/03/14 08:39:10;;;;;;;10.80;3.10;;;;;;;12.10;26.96;100848.45;107481;1258;99184;-67
2023/03/14 08:41:40;;;;;;;20.90;3.60;;;;;;;12.18;26.35;100838.59;107452;1254;112895;-68
2023/03/14 08:44:11;;;;;;;11.70;2.40;;;;;;;12.25;26.36;100833.74;107500;1254;110302;-67
2023/03/14 08:46:39;;;;;;;12.00;2.50;;;;;;;12.38;25.92;100831.29;107495;1254;107686;-67
2023/03/14 08:49:08;;;;;;;11.40;2.70;;;;;;;12.46;25.80;100831.21;107500;1254;99173;-68
2023/03/14 08:51:36;;;;;;;8.20;2.50;;;;;;;12.53;26.46;100824.12;107346;1253;99281;-68
2023/03/14 08:54:04;;;;;;;10.00;2.70;;;;;;;12.67;26.45;100822.05;107346;1259;113724;-68
2023/03/14 08:56:33;;;;;;;12.10;3.20;;;;;;;12.82;26.22;100823.83;107485;1254;109996;-69
2023/03/14 08:59:01;;;;;;;11.40;3.40;;;;;;;12.93;25.85;100814.65;107477;1254;107952;-67
2023/03/14 09:01:30;;;;;;;14.20;3.10;;;;;;;13.01;26.02;100815.51;107420;1257;99332;-67
2023/03/14 09:03:58;;;;;;;12.60;3.10;;;;;;;13.17;25.85;100814.36;107488;1257;99701;-67
2023/03/14 09:06:27;;;;;;;11.30;2.80;;;;;;;13.39;25.16;100813.96;107478;1254;114385;-69
2023/03/14 09:08:55;;;;;;;13.80;2.70;;;;;;;13.49;25.60;100799.81;107454;1254;109977;-67
2023/03/14 09:11:23;;;;;;;10.50;2.30;;;;;;;13.65;25.49;100792.84;107451;1254;108147;-68
2023/03/14 09:13:52;;;;;;;14.00;2.90;;;;;;;13.83;25.27;100799.60;107468;1254;99176;-66
2023/03/14 09:16:20;;;;;;;17.30;2.50;;;;;;;13.96;24.91;100792.97;107459;1254;100869;-68
2023/03/14 09:18:48;;;;;;;7.90;2.10;;;;;;;14.04;24.90;100791.88;107474;1254;114255;-68
2023/03/14 09:21:17;;;;;;;7.60;2.20;;;;;;;14.20;24.45;100790.50;107489;1254;108629;-67
2023/03/14 09:23:45;;;;;;;10.70;2.50;;;;;;;14.38;23.76;100790.80;107422;1254;108180;-68
2023/03/14 09:26:14;;;;;;;13.40;3.20;;;;;;;14.57;23.48;100782.71;107363;1257;99172;-69
2023/03/14 09:28:42;;;;;;;6.90;2.50;;;;;;;14.82;22.88;100778.95;107496;1257;99790;-67
2023/03/14 09:31:12;;;;;;;15.90;2.60;;;;;;;15.36;22.58;100776.77;107450;1253;114059;-67
2023/03/14 09:33:40;;;;;;;10.40;2.70;;;;;;;16.17;21.97;100772.58;107472;1254;109925;-68
2023/03/14 09:36:09;;;;;;;13.40;2.40;;;;;;;17.06;21.09;100771.77;107464;1255;108394;-68
2023/03/14 09:38:38;;;;;;;5.40;2.10;;;;;;;17.85;20.82;100759.39;107418;1254;99274;-68
2023/03/14 09:41:39;;;;;;;27.40;2.90;;;;;;;18.62;19.17;100759.76;107464;1257;99067;-66
2023/03/14 09:44:25;;;;;;;16.40;2.40;;;;;;;19.32;18.61;100756.25;107323;1254;114320;-67
2023/03/14 09:46:57;;;;;;;27.20;2.80;;;;;;;19.89;16.79;100750.29;107463;1254;108741;-66
2023/03/14 09:49:34;;;;;;;39.30;4.30;;;;;;;20.27;17.17;100741.62;107399;1254;108476;-67
2023/03/14 09:52:27;;;;;;;9.20;1.80;;;;;;;20.68;16.23;100740.23;107415;1257;99182;-68
2023/03/14 09:55:19;;;;;;;19.40;2.40;;;;;;;21.12;15.63;100731.77;106523;1254;99254;-68
2023/03/14 09:57:49;;;;;;;21.90;2.00;;;;;;;21.50;14.46;100735.02;107497;1254;113259;-68
2023/03/14 10:00:21;;;;;;;7.50;1.80;;;;;;;21.56;14.25;100731.52;107489;1254;110010;-66
2023/03/14 10:02:54;;;;;;;15.30;1.70;;;;;;;21.56;14.15;100715.23;107424;1254;107655;-69
2023/03/14 10:05:25;;;;;;;16.40;1.90;;;;;;;21.58;14.18;100715.34;107365;1254;99287;-69
2023/03/14 10:07:54;;;;;;;14.70;2.10;;;;;;;21.72;13.87;100719.39;107389;1254;99317;-69
2023/03/14 10:10:24;;;;;;;3.70;1.30;;;;;;;21.87;13.92;100722.33;107398;1254;113122;-68
2023/03/14 10:13:12;;;;;;;5.20;1.90;;;;;;;22.14;14.01;100718.98;107284;1254;109037;-66
2023/03/14 10:15:40;;;;;;;20.80;1.90;;;;;;;22.48;13.61;100703.69;107399;1254;107495;-68
2023/03/14 10:18:12;;;;;;;7.90;1.40;;;;;;;22.59;13.47;100694.12;107402;1254;99206;-68
2023/03/14 10:20:48;;;;;;;7.20;1.90;;;;;;;22.80;13.47;100697.60;107424;1254;99082;-68
2023/03/14 10:23:16;;;;;;;16.90;2.00;;;;;;;23.19;13.40;100692.38;107419;1254;113528;-69
2023/03/14 10:26:07;;;;;;;7.00;1.60;;;;;;;23.46;12.94;100683.37;107431;1254;109359;-67
2023/03/14 10:28:45;;;;;;;12.60;2.00;;;;;;;23.65;13.08;100679.48;107412;1254;108541;-68
2023/03/14 10:31:15;;;;;;;16.70;2.50;;;;;;;23.75;12.36;100674.02;107417;1254;99269;-68
2023/03/14 10:34:00;;;;;;;15.20;1.80;;;;;;;23.73;12.71;100678.69;107463;1254;99810;-67
2023/03/14 10:36:31;;;;;;;14.20;2.60;;;;;;;23.96;12.62;100668.72;107448;1254;112708;-69
2023/03/14 10:39:28;;;;;;;20.00;1.50;;;;;;;24.26;12.20;100673.89;107493;1254;110716;-66
2023/03/14 10:42:11;;;;;;;12.20;1.50;;;;;;;24.29;11.93;100672.67;107513;1254;108366;-67
2023/03/14 10:44:41;;;;;;;11.10;1.50;;;;;;;24.13;11.88;100660.88;107398;1254;99180;-67
2023/03/14 10:47:18;;;;;;;7.60;1.20;;;;;;;23.99;11.70;100655.30;107433;1254;99090;-67
2023/03/14 10:49:47;;;;;;;5.40;1.70;;;;;;;23.92;11.83;100651.88;107447;1254;113645;-68
2023/03/14 10:52:22;;;;;;;19.70;1.90;;;;;;;23.96;11.76;100645.48;107415;1254;109942;-67
2023/03/14 10:55:10;;;;;;;10.70;2.10;;;;;;;23.87;11.65;100639.71;107320;1254;108200;-68
2023/03/14 10:57:43;;;;;;;10.50;1.50;;;;;;;23.92;11.79;100632.31;107466;1254;99048;-68
2023/03/14 11:00:18;;;;;;;8.30;1.80;;;;;;;24.08;11.57;100633.75;107499;1254;99051;-67
2023/03/14 11:03:08;;;;;;;16.70;2.00;;;;;;;24.10;11.42;100617.55;107460;1254;113246;-68
2023/03/14 11:05:56;;;;;;;14.50;1.90;;;;;;;24.08;11.26;100619.52;107465;1254;109956;-64
2023/03/14 11:08:41;;;;;;;10.70;2.50;;;;;;;24.01;11.36;100608.52;107463;1254;108065;-68
2023/03/14 11:11:22;;;;;;;14.40;1.50;;;;;;;24.03;10.89;100628.95;107474;1254;99192;-66
2023/03/14 11:14:02;;;;;;;11.60;1.40;;;;;;;23.70;10.86;100614.89;107471;1254;99070;-69
2023/03/14 11:16:46;;;;;;;6.00;1.60;;;;;;;23.75;10.96;100602.84;107480;1254;113094;-67
2023/03/14 11:19:31;;;;;;;11.60;1.60;;;;;;;23.84;10.52;100597.73;107500;1254;109776;-68
2023/03/14 11:22:09;;;;;;;11.70;1.10;;;;;;;23.86;10.68;100586.98;107493;1254;108279;-68
2023/03/14 11:25:04;;;;;;;22.20;2.30;;;;;;;23.58;10.41;100581.02;107439;1253;100609;-67
2023/03/14 11:27:44;;;;;;;10.30;1.00;;;;;;;22.81;11.05;100567.52;107502;1253;99089;-66
2023/03/14 11:30:52;;;;;;;7.40;1.30;;;;;;;22.70;11.01;100568.02;107497;1254;113103;-68
2023/03/14 11:33:24;;;;;;;7.80;1.60;;;;;;;22.63;10.97;100553.09;107186;1254;110120;-67
2023/03/14 11:36:04;;;;;;;8.00;1.10;;;;;;;22.63;10.58;100551.70;107486;1254;108691;-67
2023/03/14 11:38:42;;;;;;;10.80;1.30;;;;;;;22.36;10.46;100543.42;107456;1254;99183;-66
2023/03/14 11:41:17;;;;;;;5.40;1.10;;;;;;;22.16;10.25;100541.13;107501;1254;99704;-67
2023/03/14 11:43:54;;;;;;;2.80;0.70;;;;;;;21.73;10.38;100535.21;107490;1254;113534;-68